createdAt,value
2019-01-11T00:01:52.301Z,4.40
2019-01-11T00:04:20.783Z,4.43
2019-01-11T00:06:49.216Z,4.20
2019-01-11T00:09:18.900Z,4.67
2019-01-11T00:11:47.414Z,4.67
2019-01-11T00:14:15.851Z,5.90
2019-01-11T00:16:44.272Z,5.80
2019-01-11T00:19:12.708Z,5.50
2019-01-11T00:21:41.122Z,5.10
2019-01-11T00:24:09.571Z,6.43
2019-01-11T00:26:38.190Z,5.07
2019-01-11T00:29:06.795Z,5.53
2019-01-11T00:31:35.299Z,5.17
2019-01-11T00:34:06.359Z,5.53
2019-01-11T00:36:34.859Z,5.40
2019-01-11T00:39:04.186Z,4.93
2019-01-11T00:41:32.645Z,5.13
2019-01-11T00:44:01.060Z,4.87
2019-01-11T00:46:29.475Z,5.83
2019-01-11T00:48:57.983Z,6.13
2019-01-11T00:51:26.402Z,5.87
2019-01-11T00:53:54.836Z,5.93
2019-01-11T00:56:23.261Z,6.00
2019-01-11T00:58:51.692Z,4.83
2019-01-11T01:01:20.126Z,5.47
2019-01-11T01:03:48.563Z,4.47
2019-01-11T01:06:17.060Z,4.70
2019-01-11T01:08:45.558Z,4.90
2019-01-11T01:11:14.062Z,4.97
2019-01-11T01:13:42.476Z,4.57
2019-01-11T01:16:11.047Z,3.30
2019-01-11T01:18:39.463Z,3.70
2019-01-11T01:21:08.168Z,3.93
2019-01-11T01:23:36.586Z,3.17
2019-01-11T01:26:05.553Z,3.20
2019-01-11T01:28:34.811Z,3.50
2019-01-11T01:31:03.247Z,3.30
2019-01-11T01:33:31.679Z,3.07
2019-01-11T01:36:00.097Z,2.90
2019-01-11T01:38:28.743Z,3.40
2019-01-11T01:40:58.036Z,2.73
2019-01-11T01:43:26.503Z,2.67
2019-01-11T01:45:54.919Z,2.63
2019-01-11T01:48:23.404Z,3.10
2019-01-11T01:50:51.839Z,2.90
2019-01-11T01:53:20.459Z,3.13
2019-01-11T01:55:48.932Z,3.23
2019-01-11T01:58:17.376Z,2.83
2019-01-11T02:00:45.815Z,2.90
2019-01-11T02:03:14.230Z,2.93
2019-01-11T02:05:42.647Z,2.60
2019-01-11T02:08:12.623Z,2.97
2019-01-11T02:10:41.040Z,3.20
2019-01-11T02:13:09.479Z,3.27
2019-01-11T02:15:38.178Z,3.03
2019-01-11T02:18:06.663Z,2.80
2019-01-11T02:20:35.096Z,2.90
2019-01-11T02:23:03.506Z,3.40
2019-01-11T02:25:31.938Z,3.93
2019-01-11T02:28:00.363Z,2.93
2019-01-11T02:30:28.788Z,3.80
2019-01-11T02:32:57.203Z,3.90
2019-01-11T02:35:25.647Z,3.30
2019-01-11T02:37:54.127Z,2.87
2019-01-11T02:40:22.615Z,3.00
2019-01-11T02:42:51.047Z,3.37
2019-01-11T02:45:20.099Z,3.07
2019-01-11T02:47:48.560Z,2.47
2019-01-11T02:50:17.046Z,3.20
2019-01-11T02:52:45.457Z,2.67
2019-01-11T02:55:14.028Z,3.00
2019-01-11T02:57:42.506Z,2.93
2019-01-11T03:00:14.074Z,2.80
2019-01-11T03:02:42.488Z,2.90
2019-01-11T03:05:11.157Z,2.97
2019-01-11T03:07:39.638Z,2.80
2019-01-11T03:10:16.062Z,3.17
2019-01-11T03:12:44.555Z,3.23
2019-01-11T03:15:14.174Z,3.97
2019-01-11T03:17:43.219Z,3.40
2019-01-11T03:20:13.874Z,3.77
2019-01-11T03:22:42.478Z,3.80
2019-01-11T03:25:13.133Z,3.93
2019-01-11T03:27:41.936Z,3.73
2019-01-11T03:30:18.454Z,4.13
2019-01-11T03:32:46.949Z,3.77
2019-01-11T03:35:16.293Z,3.70
2019-01-11T03:37:45.952Z,3.83
2019-01-11T03:40:16.822Z,3.83
2019-01-11T03:42:45.231Z,3.77
2019-01-11T03:45:16.499Z,4.03
2019-01-11T03:47:44.923Z,4.17
2019-01-11T03:50:15.867Z,3.23
2019-01-11T03:52:44.428Z,3.63
2019-01-11T03:55:14.294Z,4.30
2019-01-11T03:57:42.711Z,3.97
2019-01-11T04:00:17.211Z,4.17
2019-01-11T04:02:45.690Z,4.27
2019-01-11T04:05:14.257Z,4.87
2019-01-11T04:07:42.747Z,4.37
2019-01-11T04:10:14.370Z,4.70
2019-01-11T04:12:42.797Z,4.00
2019-01-11T04:15:13.551Z,4.20
2019-01-11T04:17:41.983Z,4.03
2019-01-11T04:20:16.309Z,4.10
2019-01-11T04:22:46.507Z,4.83
2019-01-11T04:25:22.638Z,4.17
2019-01-11T04:27:51.809Z,5.93
2019-01-11T04:30:21.127Z,5.03
2019-01-11T04:32:49.724Z,4.33
2019-01-11T04:35:18.776Z,5.13
2019-01-11T04:37:47.456Z,5.00
2019-01-11T04:40:16.482Z,4.97
2019-01-11T04:42:45.039Z,4.53
2019-01-11T04:45:13.607Z,4.43
2019-01-11T04:47:42.087Z,4.97
2019-01-11T04:50:13.514Z,5.47
2019-01-11T04:52:41.931Z,4.80
2019-01-11T04:55:10.602Z,5.10
2019-01-11T04:57:39.012Z,5.53
2019-01-11T05:00:19.263Z,4.97
2019-01-11T05:02:47.941Z,4.70
2019-01-11T05:05:16.698Z,5.63
2019-01-11T05:07:45.122Z,4.97
2019-01-11T05:10:16.042Z,5.17
2019-01-11T05:12:44.475Z,4.90
2019-01-11T05:15:12.889Z,5.23
2019-01-11T05:17:41.369Z,5.97
2019-01-11T05:20:16.596Z,6.00
2019-01-11T05:22:42.180Z,5.33
2019-01-11T05:25:10.681Z,6.13
2019-01-11T05:27:39.158Z,5.47
2019-01-11T05:30:10.660Z,6.60
2019-01-11T05:32:39.075Z,6.07
2019-01-11T05:35:07.839Z,5.80
2019-01-11T05:37:37.674Z,6.37
2019-01-11T05:40:14.887Z,6.63
2019-01-11T05:42:43.451Z,6.10
2019-01-11T05:45:12.111Z,7.33
2019-01-11T05:47:40.542Z,7.27
2019-01-11T05:50:14.882Z,6.70
2019-01-11T05:52:43.716Z,7.23
2019-01-11T05:55:14.211Z,6.90
2019-01-11T05:57:59.335Z,7.27
2019-01-11T06:00:27.763Z,6.90
2019-01-11T06:02:56.184Z,6.17
2019-01-11T06:05:24.616Z,7.17
2019-01-11T06:07:53.044Z,7.37
2019-01-11T06:10:21.493Z,7.40
2019-01-11T06:12:51.559Z,7.57
2019-01-11T06:15:20.068Z,7.57
2019-01-11T06:17:48.494Z,6.87
2019-01-11T06:20:17.440Z,7.57
2019-01-11T06:22:45.983Z,8.03
2019-01-11T06:25:14.432Z,7.60
2019-01-11T06:27:42.938Z,7.47
2019-01-11T06:30:13.926Z,8.13
2019-01-11T06:32:42.359Z,8.10
2019-01-11T06:35:10.943Z,8.47
2019-01-11T06:37:39.440Z,9.50
2019-01-11T06:40:10.271Z,8.47
2019-01-11T06:42:38.773Z,9.40
2019-01-11T06:45:10.302Z,8.90
2019-01-11T06:47:39.254Z,9.20
2019-01-11T06:50:13.455Z,10.17
2019-01-11T06:52:41.874Z,9.70
2019-01-11T06:55:11.358Z,9.70
2019-01-11T06:57:39.851Z,9.10
2019-01-11T07:00:18.408Z,9.13
2019-01-11T07:02:46.889Z,8.30
2019-01-11T07:05:15.368Z,9.07
2019-01-11T07:07:43.849Z,9.57
2019-01-11T07:10:15.326Z,8.80
2019-01-11T07:12:43.750Z,9.47
2019-01-11T07:15:12.908Z,10.27
2019-01-11T07:17:41.446Z,9.83
2019-01-11T07:20:14.096Z,9.33
2019-01-11T07:22:42.527Z,10.07
2019-01-11T07:25:13.491Z,9.87
2019-01-11T07:27:43.577Z,9.47
2019-01-11T07:30:14.734Z,9.53
2019-01-11T07:32:43.237Z,8.83
2019-01-11T07:35:11.795Z,10.30
2019-01-11T07:37:40.299Z,9.97
2019-01-11T07:40:12.849Z,9.50
2019-01-11T07:42:41.836Z,9.17
2019-01-11T07:45:14.168Z,9.20
2019-01-11T07:47:42.590Z,8.87
2019-01-11T07:50:12.896Z,9.97
2019-01-11T07:52:41.381Z,10.70
2019-01-11T07:55:10.826Z,10.07
2019-01-11T07:57:39.247Z,10.33
2019-01-11T08:00:10.463Z,9.17
2019-01-11T08:02:38.890Z,10.77
2019-01-11T08:05:08.380Z,10.97
2019-01-11T08:07:36.911Z,10.90
2019-01-11T08:10:08.556Z,10.93
2019-01-11T08:12:36.987Z,10.27
2019-01-11T08:15:11.119Z,10.67
2019-01-11T08:17:39.560Z,10.13
2019-01-11T08:20:09.080Z,10.47
2019-01-11T08:22:39.159Z,11.07
2019-01-11T08:25:07.983Z,10.57
2019-01-11T08:27:36.504Z,10.00
2019-01-11T08:30:10.851Z,9.13
2019-01-11T08:32:39.280Z,9.90
2019-01-11T08:35:09.615Z,11.17
2019-01-11T08:37:38.304Z,10.53
2019-01-11T08:40:09.543Z,9.27
2019-01-11T08:42:37.962Z,9.97
2019-01-11T08:45:14.548Z,10.73
2019-01-11T08:47:43.039Z,10.33
2019-01-11T08:50:21.883Z,10.73
2019-01-11T08:52:50.383Z,10.30
2019-01-11T08:55:18.970Z,10.93
2019-01-11T08:57:48.096Z,11.00
2019-01-11T09:00:17.059Z,11.57
2019-01-11T09:02:45.560Z,10.37
2019-01-11T09:05:14.128Z,10.80
2019-01-11T09:07:42.569Z,10.17
2019-01-11T09:10:22.761Z,10.37
2019-01-11T09:12:48.845Z,10.60
2019-01-11T09:15:17.571Z,9.50
2019-01-11T09:17:59.767Z,9.00
2019-01-11T09:20:28.183Z,10.80
2019-01-11T09:22:56.595Z,9.30
2019-01-11T09:25:25.030Z,10.50
2019-01-11T09:27:53.442Z,9.70
2019-01-11T09:30:21.876Z,8.83
2019-01-11T09:32:50.307Z,10.03
2019-01-11T09:35:18.732Z,9.83
2019-01-11T09:37:47.147Z,9.13
2019-01-11T09:40:15.715Z,9.00
2019-01-11T09:42:44.130Z,7.70
2019-01-11T09:45:12.820Z,8.30
2019-01-11T09:47:41.251Z,8.70
2019-01-11T09:50:11.745Z,8.33
2019-01-11T09:52:40.243Z,8.17
2019-01-11T09:55:09.311Z,9.10
2019-01-11T09:57:37.749Z,8.10
2019-01-11T10:00:21.252Z,8.23
2019-01-11T10:02:51.323Z,9.30
2019-01-11T10:05:20.009Z,8.37
2019-01-11T10:07:48.442Z,8.83
2019-01-11T10:10:17.067Z,8.90
2019-01-11T10:12:45.482Z,9.53
2019-01-11T10:15:14.954Z,9.67
2019-01-11T10:17:43.511Z,9.63
2019-01-11T10:20:13.674Z,9.60
2019-01-11T10:22:42.164Z,9.97
2019-01-11T10:25:11.244Z,9.10
2019-01-11T10:27:40.100Z,10.53
2019-01-11T10:30:17.210Z,9.83
2019-01-11T10:32:45.694Z,10.73
2019-01-11T10:35:14.246Z,10.23
2019-01-11T10:37:42.922Z,11.80
2019-01-11T10:40:16.453Z,11.13
2019-01-11T10:42:45.029Z,10.83
2019-01-11T10:45:16.488Z,12.13
2019-01-11T10:47:44.987Z,12.43
2019-01-11T10:50:16.248Z,13.53
2019-01-11T10:52:44.760Z,12.40
2019-01-11T10:55:15.387Z,12.27
2019-01-11T10:57:44.246Z,14.23
2019-01-11T11:00:15.922Z,12.50
2019-01-11T11:02:44.411Z,13.27
2019-01-11T11:05:12.986Z,13.37
2019-01-11T11:07:41.547Z,13.53
2019-01-11T11:10:12.418Z,13.20
2019-01-11T11:12:40.839Z,13.90
2019-01-11T11:15:12.181Z,12.90
2019-01-11T11:17:42.312Z,14.10
2019-01-11T11:20:13.775Z,11.50
2019-01-11T11:22:43.049Z,12.57
2019-01-11T11:25:16.855Z,13.00
2019-01-11T11:27:45.527Z,13.67
2019-01-11T11:30:15.983Z,13.57
2019-01-11T11:32:48.727Z,13.10
2019-01-11T11:35:17.154Z,14.03
2019-01-11T11:37:45.659Z,13.13
2019-01-11T11:40:14.217Z,13.50
2019-01-11T11:42:42.685Z,13.97
2019-01-11T11:45:11.578Z,13.00
2019-01-11T11:47:40.010Z,13.50
2019-01-11T11:50:10.333Z,15.87
2019-01-11T11:52:38.842Z,14.67
2019-01-11T11:55:09.222Z,14.37
2019-01-11T11:57:37.784Z,14.67
2019-01-11T12:00:18.545Z,14.13
2019-01-11T12:02:47.203Z,14.77
2019-01-11T12:05:15.769Z,15.50
2019-01-11T12:07:44.429Z,15.67
2019-01-11T12:10:14.904Z,16.40
2019-01-11T12:12:43.687Z,17.90
2019-01-11T12:15:13.771Z,17.43
2019-01-11T12:17:42.258Z,14.43
2019-01-11T12:20:19.239Z,13.73
2019-01-11T12:22:47.731Z,13.87
2019-01-11T12:25:16.152Z,12.67
2019-01-11T12:27:44.581Z,13.90
2019-01-11T12:30:15.488Z,14.70
2019-01-11T12:32:43.919Z,14.70
2019-01-11T12:35:12.345Z,13.00
2019-01-11T12:37:40.786Z,13.83
2019-01-11T12:40:11.840Z,13.23
2019-01-11T12:42:40.278Z,12.80
2019-01-11T12:45:11.339Z,12.60
2019-01-11T12:47:39.759Z,12.97
2019-01-11T12:50:11.495Z,12.37
2019-01-11T12:52:39.991Z,15.07
2019-01-11T12:55:08.567Z,14.00
2019-01-11T12:57:36.983Z,14.93
2019-01-11T13:00:08.499Z,14.33
2019-01-11T13:02:36.919Z,13.83
2019-01-11T13:05:08.080Z,14.33
2019-01-11T13:07:36.519Z,14.93
2019-01-11T13:10:08.182Z,14.10
2019-01-11T13:12:36.679Z,14.03
2019-01-11T13:15:08.175Z,14.93
2019-01-11T13:17:36.607Z,14.43
2019-01-11T13:20:08.339Z,13.97
2019-01-11T13:22:36.776Z,14.00
2019-01-11T13:25:06.939Z,15.17
2019-01-11T13:27:35.361Z,12.40
2019-01-11T13:30:06.697Z,13.43
2019-01-11T13:32:35.186Z,13.80
2019-01-11T13:35:04.196Z,11.53
2019-01-11T13:37:32.687Z,12.67
2019-01-11T13:40:01.127Z,14.43
2019-01-11T13:42:29.548Z,13.13
2019-01-11T13:44:57.979Z,11.87
2019-01-11T13:47:26.439Z,11.87
2019-01-11T13:49:54.871Z,11.90
2019-01-11T13:52:23.300Z,13.93
2019-01-11T13:54:51.724Z,13.27
2019-01-11T13:57:20.231Z,14.30
2019-01-11T13:59:48.647Z,12.70
2019-01-11T14:02:17.099Z,12.70
2019-01-11T14:04:45.522Z,14.37
2019-01-11T14:07:13.951Z,13.43
2019-01-11T14:09:42.459Z,13.60
2019-01-11T14:12:10.893Z,14.20
2019-01-11T14:14:39.330Z,13.03
2019-01-11T14:17:07.751Z,13.77
2019-01-11T14:19:36.188Z,13.17
2019-01-11T14:22:25.539Z,12.47
2019-01-11T14:24:53.979Z,10.27
2019-01-11T14:27:22.403Z,13.37
2019-01-11T14:29:50.825Z,12.50
2019-01-11T14:32:19.259Z,11.67
2019-01-11T14:34:47.685Z,12.67
2019-01-11T14:37:16.119Z,12.13
2019-01-11T14:39:44.543Z,12.80
2019-01-11T14:42:13.059Z,13.17
2019-01-11T14:44:41.474Z,10.67
2019-01-11T14:47:09.919Z,12.73
2019-01-11T14:49:38.335Z,13.40
2019-01-11T14:52:07.043Z,15.80
2019-01-11T14:54:35.458Z,12.07
2019-01-11T14:57:03.904Z,11.97
2019-01-11T14:59:32.323Z,12.93
2019-01-11T15:02:00.768Z,13.30
2019-01-11T15:04:29.192Z,14.13
2019-01-11T15:06:57.615Z,12.40
2019-01-11T15:09:26.055Z,13.23
2019-01-11T15:11:54.479Z,13.57
2019-01-11T15:14:22.910Z,13.33
2019-01-11T15:16:51.337Z,13.30
2019-01-11T15:19:19.785Z,12.40
2019-01-11T15:21:48.211Z,13.77
2019-01-11T15:24:16.635Z,15.00
2019-01-11T15:26:45.075Z,14.47
2019-01-11T15:29:13.564Z,15.37
2019-01-11T15:31:42.072Z,13.37
2019-01-11T15:34:10.497Z,15.37
2019-01-11T15:36:38.934Z,14.53
2019-01-11T15:39:08.512Z,13.70
2019-01-11T15:41:36.998Z,14.43
2019-01-11T15:44:05.503Z,13.73
2019-01-11T15:46:33.928Z,14.37
2019-01-11T15:49:02.375Z,14.37
2019-01-11T15:51:30.799Z,16.20
2019-01-11T15:53:59.219Z,13.77
2019-01-11T15:56:28.426Z,14.13
2019-01-11T15:58:56.960Z,15.90
2019-01-11T16:01:25.834Z,15.00
2019-01-11T16:03:54.446Z,14.57
2019-01-11T16:06:27.866Z,11.97
2019-01-11T16:09:08.153Z,12.77
2019-01-11T16:11:45.736Z,14.20
2019-01-11T16:14:26.143Z,12.53
2019-01-11T16:16:55.844Z,14.40
2019-01-11T16:19:24.271Z,12.17
2019-01-11T16:21:52.691Z,14.17
2019-01-11T16:24:21.128Z,13.37
2019-01-11T16:26:49.555Z,15.23
2019-01-11T16:29:17.987Z,13.03
2019-01-11T16:31:46.410Z,13.50
2019-01-11T16:34:14.849Z,13.67
2019-01-11T16:36:43.271Z,13.33
2019-01-11T16:39:11.699Z,14.20
2019-01-11T16:41:40.133Z,15.53
2019-01-11T16:44:08.557Z,13.90
2019-01-11T16:46:36.995Z,12.60
2019-01-11T16:49:05.688Z,12.80
2019-01-11T16:51:34.139Z,13.27
2019-01-11T16:54:02.559Z,14.37
2019-01-11T16:56:30.983Z,13.33
2019-01-11T16:58:59.424Z,14.17
2019-01-11T17:01:28.086Z,12.33
2019-01-11T17:03:56.520Z,12.90
2019-01-11T17:06:25.003Z,13.37
2019-01-11T17:08:53.455Z,14.90
2019-01-11T17:11:21.963Z,15.00
2019-01-11T17:13:50.403Z,14.97
2019-01-11T17:16:18.823Z,14.57
2019-01-11T17:18:47.295Z,14.93
2019-01-11T17:21:15.767Z,14.47
2019-01-11T17:23:44.190Z,14.57
2019-01-11T17:26:12.687Z,14.43
2019-01-11T17:28:41.107Z,14.63
2019-01-11T17:31:09.543Z,14.00
2019-01-11T17:33:37.959Z,15.90
2019-01-11T17:36:06.392Z,15.03
2019-01-11T17:38:34.815Z,15.30
2019-01-11T17:41:03.280Z,18.90
2019-01-11T17:43:31.704Z,15.70
2019-01-11T17:46:00.127Z,14.13
2019-01-11T17:48:28.559Z,13.43
2019-01-11T17:50:56.986Z,15.53
2019-01-11T17:53:25.492Z,16.20
2019-01-11T17:55:53.911Z,14.63
2019-01-11T17:58:22.406Z,15.47
2019-01-11T18:00:51.034Z,15.23
2019-01-11T18:03:19.474Z,15.80
2019-01-11T18:05:47.903Z,16.40
2019-01-11T18:08:16.322Z,14.40
2019-01-11T18:10:44.757Z,16.77
2019-01-11T18:13:13.174Z,15.80
2019-01-11T18:15:41.605Z,16.40
2019-01-11T18:18:10.091Z,15.67
2019-01-11T18:20:39.199Z,14.43
2019-01-11T18:23:07.699Z,14.40
2019-01-11T18:25:36.183Z,14.40
2019-01-11T18:28:04.786Z,14.00
2019-01-11T18:30:33.208Z,15.43
2019-01-11T18:33:01.636Z,16.13
2019-01-11T18:35:30.197Z,14.57
2019-01-11T18:37:58.628Z,15.30
2019-01-11T18:40:27.428Z,15.83
2019-01-11T18:42:55.854Z,15.43
2019-01-11T18:45:28.551Z,15.73
2019-01-11T18:47:54.438Z,15.17
2019-01-11T18:50:23.825Z,15.50
2019-01-11T18:52:52.380Z,15.63
2019-01-11T18:55:20.819Z,15.83
2019-01-11T18:57:49.302Z,15.80
2019-01-11T19:00:20.681Z,14.43
2019-01-11T19:02:49.253Z,14.33
2019-01-11T19:05:17.753Z,17.13
2019-01-11T19:07:46.654Z,14.93
2019-01-11T19:10:17.291Z,15.53
2019-01-11T19:12:45.983Z,14.30
2019-01-11T19:15:16.863Z,14.00
2019-01-11T19:17:45.287Z,15.37
2019-01-11T19:20:16.415Z,16.07
2019-01-11T19:22:44.986Z,14.03
2019-01-11T19:25:13.659Z,14.33
2019-01-11T19:27:42.175Z,14.87
2019-01-11T19:30:16.597Z,13.87
2019-01-11T19:32:45.102Z,16.27
2019-01-11T19:35:13.588Z,14.50
2019-01-11T19:37:42.219Z,14.10
2019-01-11T19:40:15.518Z,15.23
2019-01-11T19:42:43.950Z,15.33
2019-01-11T19:45:14.325Z,16.40
2019-01-11T19:47:42.745Z,17.50
2019-01-11T19:50:13.890Z,13.57
2019-01-11T19:52:42.378Z,15.27
2019-01-11T19:55:11.560Z,14.00
2019-01-11T19:57:40.054Z,16.47
2019-01-11T20:00:14.506Z,16.67
2019-01-11T20:02:43.006Z,16.83
2019-01-11T20:05:11.688Z,16.60
2019-01-11T20:07:40.188Z,16.33
2019-01-11T20:10:11.700Z,14.57
2019-01-11T20:12:40.194Z,15.30
2019-01-11T20:15:09.271Z,17.97
2019-01-11T20:17:37.925Z,14.67
2019-01-11T20:20:11.757Z,17.50
2019-01-11T20:22:40.263Z,17.80
2019-01-11T20:25:11.761Z,17.83
2019-01-11T20:27:40.207Z,17.47
2019-01-11T20:30:11.716Z,16.97
2019-01-11T20:32:40.199Z,16.37
2019-01-11T20:35:08.780Z,17.40
2019-01-11T20:37:37.267Z,15.90
2019-01-11T20:40:08.779Z,16.83
2019-01-11T20:42:37.211Z,15.37
2019-01-11T20:45:07.688Z,14.00
2019-01-11T20:47:36.115Z,15.40
2019-01-11T20:50:10.100Z,14.30
2019-01-11T20:52:38.515Z,16.90
2019-01-11T20:55:08.988Z,15.73
2019-01-11T20:57:37.495Z,17.13
2019-01-11T21:00:08.989Z,17.17
2019-01-11T21:02:37.425Z,15.00
2019-01-11T21:05:07.088Z,15.73
2019-01-11T21:07:35.516Z,12.80
2019-01-11T21:10:05.771Z,12.90
2019-01-11T21:12:34.212Z,15.10
2019-01-11T21:15:02.631Z,13.30
2019-01-11T21:17:31.047Z,13.43
2019-01-11T21:19:59.499Z,15.07
2019-01-11T21:22:27.923Z,13.63
2019-01-11T21:25:00.165Z,13.60
2019-01-11T21:27:26.499Z,12.57
2019-01-11T21:29:54.932Z,14.87
2019-01-11T21:32:23.424Z,13.00
2019-01-11T21:34:51.868Z,13.57
2019-01-11T21:37:20.342Z,14.13
2019-01-11T21:39:48.787Z,13.40
2019-01-11T21:42:19.190Z,15.50
2019-01-11T21:44:48.539Z,14.03
2019-01-11T21:47:16.972Z,12.47
2019-01-11T21:49:45.396Z,13.33
2019-01-11T21:52:13.888Z,13.90
2019-01-11T21:54:42.309Z,12.53
2019-01-11T21:57:10.739Z,12.27
2019-01-11T21:59:39.168Z,12.87
2019-01-11T22:02:07.584Z,14.47
2019-01-11T22:04:36.011Z,12.67
2019-01-11T22:07:04.603Z,13.03
2019-01-11T22:09:33.038Z,12.97
2019-01-11T22:12:01.461Z,12.60
2019-01-11T22:14:29.907Z,12.90
2019-01-11T22:16:58.326Z,11.63
2019-01-11T22:19:26.748Z,12.00
2019-01-11T22:21:55.251Z,12.83
2019-01-11T22:24:23.664Z,13.30
2019-01-11T22:26:52.101Z,12.50
2019-01-11T22:29:20.515Z,14.17
2019-01-11T22:31:48.959Z,13.73
2019-01-11T22:34:17.386Z,14.40
2019-01-11T22:36:45.919Z,12.80
2019-01-11T22:39:14.407Z,13.23
2019-01-11T22:41:42.823Z,15.00
2019-01-11T22:44:11.263Z,14.87
2019-01-11T22:46:39.683Z,13.23
2019-01-11T22:49:08.122Z,13.53
2019-01-11T22:51:36.531Z,13.90
2019-01-11T22:54:10.267Z,15.43
2019-01-11T22:56:35.184Z,14.30
2019-01-11T22:59:03.675Z,15.33
2019-01-11T23:01:53.651Z,15.37
2019-01-11T23:04:22.095Z,16.57
2019-01-11T23:06:56.388Z,14.40
2019-01-11T23:09:24.809Z,12.60
2019-01-11T23:11:58.991Z,15.07
2019-01-11T23:14:27.415Z,14.30
2019-01-11T23:16:58.691Z,14.90
2019-01-11T23:19:27.110Z,14.83
2019-01-11T23:21:55.548Z,15.43
2019-01-11T23:24:23.970Z,15.60
2019-01-11T23:26:52.410Z,15.20
2019-01-11T23:29:20.835Z,16.03
2019-01-11T23:31:49.273Z,18.30
2019-01-11T23:34:17.684Z,16.67
2019-01-11T23:36:46.128Z,15.50
2019-01-11T23:39:14.543Z,16.50
2019-01-11T23:41:43.790Z,15.50
2019-01-11T23:44:12.220Z,16.63
2019-01-11T23:46:40.712Z,16.60
2019-01-11T23:49:09.209Z,16.40
2019-01-11T23:51:37.756Z,15.60
2019-01-11T23:54:06.204Z,14.20
2019-01-11T23:56:34.623Z,14.53
2019-01-11T23:59:03.117Z,14.97
